Time;durP1;ratioP1;P1;durP2;ratioP2;P2;SDS_P1;SDS_P2;PMS_P1;PMS_P2;Temp;Humidity;BMP_temperature;BMP_pressure;BME280_temperature;BME280_humidity;BME280_pressure;Samples;Min_cycle;Max_cycle;Signal;HPM_P1;HPM_P2
2023/07/30 00:00:36;;;;;;;;;;;;;;;;;;4956139;28;20310;-79
2023/07/30 00:03:23;;;;;;;;;;;;;;;;;;4956990;28;19923;-79
2023/07/30 00:06:09;;;;;;;;;;;;;;;;;;4954900;28;19937;-78
2023/07/30 00:08:55;;;;;;;;;;;;;;;;;;4960126;28;20379;-78
2023/07/30 00:11:42;;;;;;;;;;;;;;;;;;4957910;28;19933;-78
2023/07/30 00:14:28;;;;;;;;;;;;;;;;;;4949590;28;19923;-78
2023/07/30 00:17:15;;;;;;;;;;;;;;;;;;4949371;28;19918;-79
2023/07/30 00:20:02;;;;;;;;;;;;;;;;;;4958368;28;20401;-78
2023/07/30 00:22:48;;;;;;;;;;;;;;;;;;4957785;28;19967;-78
2023/07/30 00:25:35;;;;;;;;;;;;;;;;;;4965527;28;19929;-79
2023/07/30 00:28:21;;;;;;;;;;;;;;;;;;4961730;28;19944;-78
2023/07/30 00:31:07;;;;;;;;;;;;;;;;;;4965692;28;19918;-79
2023/07/30 00:33:54;;;;;;;;;;;;;;;;;;4968688;28;19919;-78
2023/07/30 00:36:41;;;;;;;;;;;;;;;;;;4971796;28;19926;-78
2023/07/30 00:39:27;;;;;;;;;;;;;;;;;;4964682;28;19938;-79
2023/07/30 00:42:14;;;;;;;;;;;;;;;;;;4966866;28;19926;-78
2023/07/30 00:45:00;;;;;;;;;;;;;;;;;;4966313;28;19925;-79
2023/07/30 00:47:46;;;;;;;;;;;;;;;;;;4971216;28;19918;-80
2023/07/30 00:50:33;;;;;;;;;;;;;;;;;;4968162;28;19918;-79
2023/07/30 00:53:19;;;;;;;;;;;;;;;;;;4961085;28;19933;-78
2023/07/30 00:56:06;;;;;;;;;;;;;;;;;;4966805;28;19930;-77
2023/07/30 00:58:52;;;;;;;;;;;;;;;;;;4960019;28;20508;-77
2023/07/30 01:01:39;;;;;;;;;;;;;;;;;;4955423;28;19945;-78
2023/07/30 01:04:25;;;;;;;;;;;;;;;;;;4967076;28;19926;-77
2023/07/30 01:07:12;;;;;;;;;;;;;;;;;;4963577;28;20389;-78
2023/07/30 01:09:58;;;;;;;;;;;;;;;;;;4960497;28;19922;-78
2023/07/30 01:12:45;;;;;;;;;;;;;;;;;;4961568;28;19918;-78
2023/07/30 01:15:31;;;;;;;;;;;;;;;;;;4955826;28;19918;-78
2023/07/30 01:18:18;;;;;;;;;;;;;;;;;;4949744;28;20573;-78
2023/07/30 01:21:04;;;;;;;;;;;;;;;;;;4962308;28;19922;-78
2023/07/30 01:23:51;;;;;;;;;;;;;;;;;;4962957;28;19923;-78
2023/07/30 01:26:37;;;;;;;;;;;;;;;;;;4961916;28;20398;-76
2023/07/30 01:29:24;;;;;;;;;;;;;;;;;;4959676;28;19918;-77
2023/07/30 01:32:10;;;;;;;;;;;;;;;;;;4964877;28;19934;-76
2023/07/30 01:34:57;;;;;;;;;;;;;;;;;;4966157;28;20421;-76
2023/07/30 01:37:43;;;;;;;;;;;;;;;;;;4964701;28;19925;-78
2023/07/30 01:40:30;;;;;;;;;;;;;;;;;;4966847;28;19922;-77
2023/07/30 01:43:16;;;;;;;;;;;;;;;;;;4959783;28;19915;-78
2023/07/30 01:46:03;;;;;;;;;;;;;;;;;;4965205;28;19925;-79
2023/07/30 01:48:49;;;;;;;;;;;;;;;;;;4956794;28;19926;-78
2023/07/30 01:51:36;;;;;;;;;;;;;;;;;;4952296;28;19918;-79
2023/07/30 01:54:22;;;;;;;;;;;;;;;;;;4952921;28;20447;-79
2023/07/30 01:57:10;;;;;;;;;;;;;;;;;;4966008;28;19918;-79
2023/07/30 01:59:56;;;;;;;;;;;;;;;;;;4964287;28;19937;-79
2023/07/30 02:02:43;;;;;;;;;;;;;;;;;;4966873;28;20372;-79
2023/07/30 02:05:29;;;;;;;;;;;;;;;;;;4960107;28;20026;-79
2023/07/30 02:08:16;;;;;;;;;;;;;;;;;;4965851;28;20297;-79
2023/07/30 02:11:02;;;;;;;;;;;;;;;;;;4965014;28;19918;-80
2023/07/30 02:13:49;;;;;;;;;;;;;;;;;;4969503;28;20301;-79
2023/07/30 02:16:35;;;;;;;;;;;;;;;;;;4943477;28;19929;-79
2023/07/30 02:19:22;;;;;;;;;;;;;;;;;;4955183;28;19918;-79
2023/07/30 02:22:08;;;;;;;;;;;;;;;;;;4964965;28;19937;-79
2023/07/30 02:24:57;;;;;;;;;;;;;;;;;;4964442;28;19925;-79
2023/07/30 02:27:43;;;;;;;;;;;;;;;;;;4958952;28;20378;-77
2023/07/30 02:30:30;;;;;;;;;;;;;;;;;;4950079;28;19924;-77
2023/07/30 02:33:16;;;;;;;;;;;;;;;;;;4967404;28;19918;-77
2023/07/30 02:36:03;;;;;;;;;;;;;;;;;;4959923;28;19925;-77
2023/07/30 02:38:49;;;;;;;;;;;;;;;;;;4964680;28;19918;-76
2023/07/30 02:41:35;;;;;;;;;;;;;;;;;;4964984;28;20402;-78
2023/07/30 02:44:22;;;;;;;;;;;;;;;;;;4950803;28;19930;-78
2023/07/30 02:47:08;;;;;;;;;;;;;;;;;;4956060;28;19924;-78
2023/07/30 02:49:55;;;;;;;;;;;;;;;;;;4952576;28;20604;-77
2023/07/30 02:52:41;;;;;;;;;;;;;;;;;;4963707;28;19926;-77
2023/07/30 02:55:28;;;;;;;;;;;;;;;;;;4959218;28;19914;-77
2023/07/30 02:58:14;;;;;;;;;;;;;;;;;;4964519;28;19926;-78
2023/07/30 03:01:01;;;;;;;;;;;;;;;;;;4959244;28;19925;-78
2023/07/30 03:03:47;;;;;;;;;;;;;;;;;;4958927;28;20287;-78
2023/07/30 03:06:34;;;;;;;;;;;;;;;;;;4959597;28;19925;-77
2023/07/30 03:09:20;;;;;;;;;;;;;;;;;;4953068;28;19914;-77
2023/07/30 03:12:07;;;;;;;;;;;;;;;;;;4960271;28;19925;-76
2023/07/30 03:14:53;;;;;;;;;;;;;;;;;;4962662;28;19918;-77
2023/07/30 03:17:40;;;;;;;;;;;;;;;;;;4964161;28;19922;-77
2023/07/30 03:20:26;;;;;;;;;;;;;;;;;;4964470;28;19936;-77
2023/07/30 03:23:13;;;;;;;;;;;;;;;;;;4963207;28;20417;-78
2023/07/30 03:26:00;;;;;;;;;;;;;;;;;;4963119;28;19914;-78
2023/07/30 03:28:46;;;;;;;;;;;;;;;;;;4956477;28;19922;-78
2023/07/30 03:31:33;;;;;;;;;;;;;;;;;;4943635;28;19925;-77
2023/07/30 03:34:19;;;;;;;;;;;;;;;;;;4973441;28;19913;-77
2023/07/30 03:37:06;;;;;;;;;;;;;;;;;;4957760;28;21104;-77
2023/07/30 03:39:52;;;;;;;;;;;;;;;;;;4972583;28;20583;-77
2023/07/30 03:42:39;;;;;;;;;;;;;;;;;;4963449;28;19930;-77
2023/07/30 03:45:25;;;;;;;;;;;;;;;;;;4967508;28;19953;-77
2023/07/30 03:48:12;;;;;;;;;;;;;;;;;;4969116;28;20417;-77
2023/07/30 03:50:58;;;;;;;;;;;;;;;;;;4961720;28;20378;-79
2023/07/30 03:53:45;;;;;;;;;;;;;;;;;;4965822;28;19966;-79
2023/07/30 03:56:31;;;;;;;;;;;;;;;;;;4969331;28;19925;-79
2023/07/30 03:59:18;;;;;;;;;;;;;;;;;;4950660;28;20333;-78
2023/07/30 04:02:04;;;;;;;;;;;;;;;;;;4966755;28;19937;-78
2023/07/30 04:04:51;;;;;;;;;;;;;;;;;;4973345;28;19926;-78
2023/07/30 04:07:37;;;;;;;;;;;;;;;;;;4965841;28;19929;-78
2023/07/30 04:10:24;;;;;;;;;;;;;;;;;;4946473;28;19933;-77
2023/07/30 04:13:10;;;;;;;;;;;;;;;;;;4951247;28;21074;-76
2023/07/30 04:15:56;;;;;;;;;;;;;;;;;;4959275;28;19923;-77
2023/07/30 04:18:43;;;;;;;;;;;;;;;;;;4970668;28;19944;-76
2023/07/30 04:21:29;;;;;;;;;;;;;;;;;;4955032;28;19953;-76
2023/07/30 04:24:16;;;;;;;;;;;;;;;;;;4968353;28;19930;-76
2023/07/30 04:27:02;;;;;;;;;;;;;;;;;;4948652;28;20346;-77
2023/07/30 04:29:49;;;;;;;;;;;;;;;;;;4947711;28;19942;-77
2023/07/30 04:32:35;;;;;;;;;;;;;;;;;;4943851;28;20294;-77
2023/07/30 04:35:22;;;;;;;;;;;;;;;;;;4948925;28;19922;-78
2023/07/30 04:38:08;;;;;;;;;;;;;;;;;;4946563;28;19918;-79
2023/07/30 04:40:55;;;;;;;;;;;;;;;;;;4944281;28;19930;-78
2023/07/30 04:43:41;;;;;;;;;;;;;;;;;;4943115;28;19953;-77
2023/07/30 04:46:28;;;;;;;;;;;;;;;;;;4947197;28;19914;-77
2023/07/30 04:49:14;;;;;;;;;;;;;;;;;;4951277;28;19925;-78
2023/07/30 04:52:01;;;;;;;;;;;;;;;;;;4974366;28;19921;-77
2023/07/30 04:54:47;;;;;;;;;;;;;;;;;;4962988;28;20301;-78
2023/07/30 04:57:34;;;;;;;;;;;;;;;;;;4951403;28;19928;-77
2023/07/30 05:00:20;;;;;;;;;;;;;;;;;;4968945;28;19926;-78
2023/07/30 05:03:07;;;;;;;;;;;;;;;;;;4971028;28;20418;-77
2023/07/30 05:05:53;;;;;;;;;;;;;;;;;;4970400;28;19923;-76
2023/07/30 05:08:40;;;;;;;;;;;;;;;;;;4968191;28;19918;-76
2023/07/30 05:11:26;;;;;;;;;;;;;;;;;;4952169;28;19972;-76
2023/07/30 05:14:12;;;;;;;;;;;;;;;;;;4952880;28;19922;-77
2023/07/30 05:16:59;;;;;;;;;;;;;;;;;;4972270;28;19937;-76
2023/07/30 05:19:46;;;;;;;;;;;;;;;;;;4977866;28;19929;-76
2023/07/30 05:22:33;;;;;;;;;;;;;;;;;;4963951;28;19938;-78
2023/07/30 05:25:19;;;;;;;;;;;;;;;;;;4956723;28;20451;-78
2023/07/30 05:28:06;;;;;;;;;;;;;;;;;;4966325;28;20762;-77
2023/07/30 05:30:52;;;;;;;;;;;;;;;;;;4963321;28;19922;-77
2023/07/30 05:33:39;;;;;;;;;;;;;;;;;;4954769;28;19929;-77
2023/07/30 05:36:25;;;;;;;;;;;;;;;;;;4968256;28;19926;-78
2023/07/30 05:39:12;;;;;;;;;;;;;;;;;;4969354;28;20633;-77
2023/07/30 05:41:58;;;;;;;;;;;;;;;;;;4973736;28;19929;-78
2023/07/30 05:44:45;;;;;;;;;;;;;;;;;;4956769;28;19923;-78
2023/07/30 05:47:31;;;;;;;;;;;;;;;;;;4970236;28;20313;-79
2023/07/30 05:50:17;;;;;;;;;;;;;;;;;;4947417;28;19919;-78
2023/07/30 05:53:04;;;;;;;;;;;;;;;;;;4954631;28;19914;-77
2023/07/30 05:55:50;;;;;;;;;;;;;;;;;;4976978;28;20378;-78
2023/07/30 05:58:37;;;;;;;;;;;;;;;;;;4973054;28;19926;-78
2023/07/30 06:01:23;;;;;;;;;;;;;;;;;;4977599;28;19937;-78
2023/07/30 06:04:10;;;;;;;;;;;;;;;;;;4972167;28;19918;-79
2023/07/30 06:06:56;;;;;;;;;;;;;;;;;;4949777;28;19933;-78
2023/07/30 06:09:43;;;;;;;;;;;;;;;;;;4949516;28;19938;-78
2023/07/30 06:12:29;;;;;;;;;;;;;;;;;;4972336;28;19929;-78
2023/07/30 06:15:16;;;;;;;;;;;;;;;;;;4959669;28;19922;-77
2023/07/30 06:18:03;;;;;;;;;;;;;;;;;;4978171;28;19922;-78
2023/07/30 06:20:49;;;;;;;;;;;;;;;;;;4961038;28;19925;-77
2023/07/30 06:23:36;;;;;;;;;;;;;;;;;;4964402;28;19929;-78
2023/07/30 06:26:22;;;;;;;;;;;;;;;;;;4963502;28;20373;-78
2023/07/30 06:29:09;;;;;;;;;;;;;;;;;;4970740;28;19922;-78
2023/07/30 06:31:55;;;;;;;;;;;;;;;;;;4976885;28;20036;-78
2023/07/30 06:34:42;;;;;;;;;;;;;;;;;;4984291;28;20365;-78
2023/07/30 06:37:28;;;;;;;;;;;;;;;;;;4949917;28;19922;-77
2023/07/30 06:40:14;;;;;;;;;;;;;;;;;;4947610;28;19922;-76
2023/07/30 06:43:01;;;;;;;;;;;;;;;;;;4949881;28;20357;-78
2023/07/30 06:45:47;;;;;;;;;;;;;;;;;;4951652;28;19926;-78
2023/07/30 06:48:34;;;;;;;;;;;;;;;;;;4956197;28;20382;-79
2023/07/30 06:51:20;;;;;;;;;;;;;;;;;;4965354;28;19923;-76
2023/07/30 06:54:07;;;;;;;;;;;;;;;;;;4976011;28;19922;-77
2023/07/30 06:56:54;;;;;;;;;;;;;;;;;;4945038;28;19929;-77
2023/07/30 06:59:41;;;;;;;;;;;;;;;;;;4943011;28;19934;-76
2023/07/30 07:02:27;;;;;;;;;;;;;;;;;;4946055;28;21869;-76
2023/07/30 07:05:13;;;;;;;;;;;;;;;;;;4957654;28;19929;-80
2023/07/30 07:08:00;;;;;;;;;;;;;;;;;;4949119;28;19926;-81
2023/07/30 07:10:46;;;;;;;;;;;;;;;;;;4969498;28;19926;-80
2023/07/30 07:13:33;;;;;;;;;;;;;;;;;;4947085;28;19922;-79
2023/07/30 07:16:19;;;;;;;;;;;;;;;;;;4943945;28;20290;-80
2023/07/30 07:19:06;;;;;;;;;;;;;;;;;;4948577;28;20393;-79
2023/07/30 07:21:52;;;;;;;;;;;;;;;;;;4952150;28;19965;-78
2023/07/30 07:24:39;;;;;;;;;;;;;;;;;;4949731;28;19929;-79
2023/07/30 07:27:25;;;;;;;;;;;;;;;;;;4944424;28;19922;-79
2023/07/30 07:30:12;;;;;;;;;;;;;;;;;;4956092;28;20305;-81
2023/07/30 07:32:59;;;;;;;;;;;;;;;;;;4961087;28;19922;-79
2023/07/30 07:35:45;;;;;;;;;;;;;;;;;;4970355;28;19918;-80
2023/07/30 07:38:32;;;;;;;;;;;;;;;;;;4955249;28;20321;-80
2023/07/30 07:41:18;;;;;;;;;;;;;;;;;;4964805;28;20005;-79
2023/07/30 07:44:05;;;;;;;;;;;;;;;;;;4943839;28;19930;-80
2023/07/30 07:46:51;;;;;;;;;;;;;;;;;;4949327;28;19929;-79
2023/07/30 07:49:38;;;;;;;;;;;;;;;;;;4947902;28;19945;-78
2023/07/30 07:52:25;;;;;;;;;;;;;;;;;;4947497;28;19929;-79
2023/07/30 07:55:11;;;;;;;;;;;;;;;;;;4948334;28;19926;-81
2023/07/30 07:57:58;;;;;;;;;;;;;;;;;;4958798;28;19926;-81
2023/07/30 08:00:44;;;;;;;;;;;;;;;;;;4948951;28;20333;-81
2023/07/30 08:03:31;;;;;;;;;;;;;;;;;;4977856;28;20358;-80
2023/07/30 08:06:17;;;;;;;;;;;;;;;;;;4975642;28;19936;-81
2023/07/30 08:09:03;;;;;;;;;;;;;;;;;;4976661;28;19918;-82
2023/07/30 08:11:50;;;;;;;;;;;;;;;;;;4970343;28;19922;-81
2023/07/30 08:14:36;;;;;;;;;;;;;;;;;;4964380;28;19924;-80
2023/07/30 08:17:23;;;;;;;;;;;;;;;;;;4964272;28;19922;-80
2023/07/30 08:20:09;;;;;;;;;;;;;;;;;;4973609;28;19930;-81
2023/07/30 08:22:56;;;;;;;;;;;;;;;;;;4966554;28;19976;-81
2023/07/30 08:25:42;;;;;;;;;;;;;;;;;;4965056;28;20275;-82
2023/07/30 08:28:29;;;;;;;;;;;;;;;;;;4975220;28;19926;-81
2023/07/30 08:31:15;;;;;;;;;;;;;;;;;;4983191;28;19918;-79
2023/07/30 08:34:02;;;;;;;;;;;;;;;;;;4970536;28;20501;-80
2023/07/30 08:36:48;;;;;;;;;;;;;;;;;;4970741;28;19925;-80
2023/07/30 08:39:35;;;;;;;;;;;;;;;;;;4968750;28;20280;-80
2023/07/30 08:42:21;;;;;;;;;;;;;;;;;;4962183;28;19930;-81
2023/07/30 08:45:08;;;;;;;;;;;;;;;;;;4967254;28;19934;-81
2023/07/30 08:47:54;;;;;;;;;;;;;;;;;;4969470;28;19929;-84
2023/07/30 08:50:41;;;;;;;;;;;;;;;;;;4958067;28;19918;-83
2023/07/30 08:53:27;;;;;;;;;;;;;;;;;;4938278;28;19923;-85
2023/07/30 08:56:13;;;;;;;;;;;;;;;;;;4960725;28;19933;-83
2023/07/30 08:59:00;;;;;;;;;;;;;;;;;;4958698;28;19941;-83
2023/07/30 09:01:46;;;;;;;;;;;;;;;;;;4960248;28;20591;-83
2023/07/30 09:04:33;;;;;;;;;;;;;;;;;;4951761;28;20120;-82
2023/07/30 09:07:19;;;;;;;;;;;;;;;;;;4943313;28;19918;-84
2023/07/30 09:10:06;;;;;;;;;;;;;;;;;;4948040;28;19922;-83
2023/07/30 09:12:53;;;;;;;;;;;;;;;;;;4969442;28;19932;-83
2023/07/30 09:15:40;;;;;;;;;;;;;;;;;;4960925;28;19918;-84
2023/07/30 09:18:26;;;;;;;;;;;;;;;;;;4960366;28;19922;-83
2023/07/30 09:21:13;;;;;;;;;;;;;;;;;;4965464;28;19937;-81
2023/07/30 09:24:05;;;;;;;;;;;;;;;;;;4970170;28;19922;-79
2023/07/30 09:26:52;;;;;;;;;;;;;;;;;;4972151;28;19929;-85
2023/07/30 09:29:38;;;;;;;;;;;;;;;;;;4967803;28;19918;-86
2023/07/30 09:32:25;;;;;;;;;;;;;;;;;;4962857;28;19924;-85
2023/07/30 09:35:11;;;;;;;;;;;;;;;;;;4979874;28;20435;-86
2023/07/30 09:37:58;;;;;;;;;;;;;;;;;;4966477;28;19919;-84
2023/07/30 09:40:47;;;;;;;;;;;;;;;;;;4970668;28;19922;-85
2023/07/30 09:43:34;;;;;;;;;;;;;;;;;;4971229;28;20033;-82
2023/07/30 09:46:21;;;;;;;;;;;;;;;;;;4967373;28;20026;-84
2023/07/30 09:49:07;;;;;;;;;;;;;;;;;;4967180;28;19922;-84
2023/07/30 09:51:54;;;;;;;;;;;;;;;;;;4965937;28;19941;-84
2023/07/30 09:54:40;;;;;;;;;;;;;;;;;;4970223;28;19922;-89
2023/07/30 09:57:27;;;;;;;;;;;;;;;;;;4968395;28;19926;-89
2023/07/30 10:00:14;;;;;;;;;;;;;;;;;;4962719;28;19922;-88
2023/07/30 10:03:00;;;;;;;;;;;;;;;;;;4959977;28;19922;-88
2023/07/30 10:05:46;;;;;;;;;;;;;;;;;;4962062;28;20313;-81
2023/07/30 10:08:33;;;;;;;;;;;;;;;;;;4971379;28;19922;-83
2023/07/30 10:11:19;;;;;;;;;;;;;;;;;;4965755;28;19922;-78
2023/07/30 10:14:06;;;;;;;;;;;;;;;;;;4968199;28;19922;-77
2023/07/30 10:16:52;;;;;;;;;;;;;;;;;;4970780;28;19954;-78
2023/07/30 10:19:39;;;;;;;;;;;;;;;;;;4966000;28;19937;-76
2023/07/30 10:22:25;;;;;;;;;;;;;;;;;;4959575;28;19933;-77
2023/07/30 10:25:12;;;;;;;;;;;;;;;;;;4954961;28;19926;-77
2023/07/30 10:28:01;;;;;;;;;;;;;;;;;;4961760;28;19926;-78
2023/07/30 10:30:47;;;;;;;;;;;;;;;;;;4967177;28;19922;-79
2023/07/30 10:33:34;;;;;;;;;;;;;;;;;;4961492;28;20298;-79
2023/07/30 10:36:20;;;;;;;;;;;;;;;;;;4937435;28;19926;-78
2023/07/30 10:39:07;;;;;;;;;;;;;;;;;;4938262;28;19925;-79
2023/07/30 10:41:53;;;;;;;;;;;;;;;;;;4960676;28;19930;-79
2023/07/30 10:44:40;;;;;;;;;;;;;;;;;;4960865;28;19956;-80
2023/07/30 10:47:26;;;;;;;;;;;;;;;;;;4949002;28;19918;-80
2023/07/30 10:50:14;;;;;;;;;;;;;;;;;;4968632;28;19933;-79
2023/07/30 10:53:01;;;;;;;;;;;;;;;;;;4974002;28;19922;-79
2023/07/30 10:55:47;;;;;;;;;;;;;;;;;;4969277;28;19932;-78
2023/07/30 10:58:34;;;;;;;;;;;;;;;;;;4971900;28;20321;-78
2023/07/30 11:01:21;;;;;;;;;;;;;;;;;;4968191;28;19926;-77
2023/07/30 11:04:07;;;;;;;;;;;;;;;;;;4968066;28;19933;-80
2023/07/30 11:06:54;;;;;;;;;;;;;;;;;;4967284;28;20363;-79
2023/07/30 11:09:40;;;;;;;;;;;;;;;;;;4970378;28;19921;-78
2023/07/30 11:12:27;;;;;;;;;;;;;;;;;;4964394;28;19922;-79
2023/07/30 11:15:13;;;;;;;;;;;;;;;;;;4966304;28;20365;-80
2023/07/30 11:17:59;;;;;;;;;;;;;;;;;;4965667;28;19914;-78
2023/07/30 11:20:46;;;;;;;;;;;;;;;;;;4970902;28;20479;-79
2023/07/30 11:23:32;;;;;;;;;;;;;;;;;;4966817;28;19930;-78
2023/07/30 11:26:19;;;;;;;;;;;;;;;;;;4965848;28;19951;-78
2023/07/30 11:29:05;;;;;;;;;;;;;;;;;;4972040;28;19929;-77
2023/07/30 11:31:52;;;;;;;;;;;;;;;;;;4956535;28;19927;-78
2023/07/30 11:34:39;;;;;;;;;;;;;;;;;;4956434;28;19929;-78
2023/07/30 11:37:26;;;;;;;;;;;;;;;;;;4929052;28;19925;-78
2023/07/30 11:40:12;;;;;;;;;;;;;;;;;;4945412;28;19934;-77
2023/07/30 11:42:59;;;;;;;;;;;;;;;;;;4941353;28;19941;-78
2023/07/30 11:45:46;;;;;;;;;;;;;;;;;;4961441;28;19922;-78
2023/07/30 11:48:32;;;;;;;;;;;;;;;;;;4955342;28;19926;-78
2023/07/30 11:51:19;;;;;;;;;;;;;;;;;;4965291;28;20286;-77
2023/07/30 11:54:05;;;;;;;;;;;;;;;;;;4969931;28;19921;-78
2023/07/30 11:56:51;;;;;;;;;;;;;;;;;;4960694;28;19922;-78
2023/07/30 11:59:39;;;;;;;;;;;;;;;;;;4973049;28;19932;-78
2023/07/30 12:02:25;;;;;;;;;;;;;;;;;;4958702;28;20296;-78
2023/07/30 12:05:12;;;;;;;;;;;;;;;;;;4964586;28;20482;-78
2023/07/30 12:08:02;;;;;;;;;;;;;;;;;;4955206;28;19919;-79
2023/07/30 12:10:50;;;;;;;;;;;;;;;;;;4971877;28;19981;-79
2023/07/30 12:13:37;;;;;;;;;;;;;;;;;;4951383;28;20272;-79
2023/07/30 12:16:24;;;;;;;;;;;;;;;;;;4951977;28;19938;-79
2023/07/30 12:19:10;;;;;;;;;;;;;;;;;;4959638;28;20305;-85
2023/07/30 12:21:57;;;;;;;;;;;;;;;;;;4962166;28;19930;-84
2023/07/30 12:24:43;;;;;;;;;;;;;;;;;;4967201;28;19952;-83
2023/07/30 12:27:30;;;;;;;;;;;;;;;;;;4958426;28;19918;-86
2023/07/30 12:30:16;;;;;;;;;;;;;;;;;;4962354;28;20045;-86
2023/07/30 12:33:03;;;;;;;;;;;;;;;;;;4968392;28;19926;-78
2023/07/30 12:35:50;;;;;;;;;;;;;;;;;;4964219;28;19922;-79
2023/07/30 12:38:36;;;;;;;;;;;;;;;;;;4964917;28;19925;-79
2023/07/30 12:41:25;;;;;;;;;;;;;;;;;;4969022;28;19926;-80
2023/07/30 12:44:12;;;;;;;;;;;;;;;;;;4974578;28;20427;-80
2023/07/30 12:46:58;;;;;;;;;;;;;;;;;;4958277;28;19918;-80
2023/07/30 12:49:45;;;;;;;;;;;;;;;;;;4957454;28;19922;-80
2023/07/30 12:52:31;;;;;;;;;;;;;;;;;;4964339;28;19928;-79
2023/07/30 12:55:18;;;;;;;;;;;;;;;;;;4966523;28;19914;-79
2023/07/30 12:58:04;;;;;;;;;;;;;;;;;;4967977;28;19934;-80
2023/07/30 13:00:51;;;;;;;;;;;;;;;;;;4969801;28;19926;-80
2023/07/30 13:03:38;;;;;;;;;;;;;;;;;;4972402;28;19940;-81
2023/07/30 13:06:25;;;;;;;;;;;;;;;;;;4950543;28;19922;-80
2023/07/30 13:09:11;;;;;;;;;;;;;;;;;;4960346;28;19918;-80
2023/07/30 13:11:58;;;;;;;;;;;;;;;;;;4965591;28;20401;-80
2023/07/30 13:14:44;;;;;;;;;;;;;;;;;;4947704;28;19922;-79
2023/07/30 13:17:31;;;;;;;;;;;;;;;;;;4953538;28;19929;-81
2023/07/30 13:20:18;;;;;;;;;;;;;;;;;;4963021;28;19945;-80
2023/07/30 13:23:04;;;;;;;;;;;;;;;;;;4957342;28;19937;-79
2023/07/30 13:25:51;;;;;;;;;;;;;;;;;;4947612;28;20302;-82
2023/07/30 13:28:37;;;;;;;;;;;;;;;;;;4951342;28;19945;-84
2023/07/30 13:31:24;;;;;;;;;;;;;;;;;;4956008;28;20079;-83
2023/07/30 13:34:10;;;;;;;;;;;;;;;;;;4963306;28;19927;-82
2023/07/30 13:36:57;;;;;;;;;;;;;;;;;;4959304;28;19929;-83
2023/07/30 13:39:43;;;;;;;;;;;;;;;;;;4953047;28;19950;-83
2023/07/30 13:42:30;;;;;;;;;;;;;;;;;;4951330;28;19926;-83
2023/07/30 13:45:16;;;;;;;;;;;;;;;;;;4950674;28;20350;-83
2023/07/30 13:48:03;;;;;;;;;;;;;;;;;;4945337;28;19933;-84
2023/07/30 13:50:49;;;;;;;;;;;;;;;;;;4941416;28;19956;-84
2023/07/30 13:53:40;;;;;;;;;;;;;;;;;;4952836;28;19931;-83
2023/07/30 13:56:27;;;;;;;;;;;;;;;;;;4946275;28;19922;-79
2023/07/30 13:59:13;;;;;;;;;;;;;;;;;;4944156;28;19961;-81
2023/07/30 14:02:00;;;;;;;;;;;;;;;;;;4949516;28;20427;-79
2023/07/30 14:04:46;;;;;;;;;;;;;;;;;;4952126;28;19928;-81
2023/07/30 14:07:33;;;;;;;;;;;;;;;;;;4950675;28;19922;-81
2023/07/30 14:10:19;;;;;;;;;;;;;;;;;;4938940;28;19929;-81
2023/07/30 14:13:06;;;;;;;;;;;;;;;;;;4925701;28;20383;-80
2023/07/30 14:15:52;;;;;;;;;;;;;;;;;;4944075;28;20116;-79
2023/07/30 14:18:39;;;;;;;;;;;;;;;;;;4953356;28;19969;-81
2023/07/30 14:21:25;;;;;;;;;;;;;;;;;;4947838;28;20015;-80
2023/07/30 14:24:12;;;;;;;;;;;;;;;;;;4951398;28;19934;-81
2023/07/30 14:26:58;;;;;;;;;;;;;;;;;;4944770;28;19937;-80
2023/07/30 14:29:45;;;;;;;;;;;;;;;;;;4950477;28;20421;-81
2023/07/30 14:32:31;;;;;;;;;;;;;;;;;;4944739;28;20301;-82
2023/07/30 14:35:18;;;;;;;;;;;;;;;;;;4945905;28;19922;-80
2023/07/30 14:38:04;;;;;;;;;;;;;;;;;;4938036;28;19945;-80
2023/07/30 14:40:51;;;;;;;;;;;;;;;;;;4939359;28;19918;-81
2023/07/30 14:43:37;;;;;;;;;;;;;;;;;;4937241;28;19930;-81
2023/07/30 14:46:24;;;;;;;;;;;;;;;;;;4938616;28;19930;-81
2023/07/30 14:49:10;;;;;;;;;;;;;;;;;;4941852;28;20409;-79
2023/07/30 14:51:57;;;;;;;;;;;;;;;;;;4943997;28;19929;-79
2023/07/30 14:54:43;;;;;;;;;;;;;;;;;;4952389;28;19933;-80
2023/07/30 14:57:30;;;;;;;;;;;;;;;;;;4948664;28;19926;-82
2023/07/30 15:00:17;;;;;;;;;;;;;;;;;;4965852;28;20670;-80
2023/07/30 15:03:04;;;;;;;;;;;;;;;;;;4979754;28;19934;-80
2023/07/30 15:05:51;;;;;;;;;;;;;;;;;;4978649;28;19929;-81
2023/07/30 15:08:37;;;;;;;;;;;;;;;;;;4976270;28;19918;-87
2023/07/30 15:11:24;;;;;;;;;;;;;;;;;;4973297;28;19929;-83
2023/07/30 15:14:10;;;;;;;;;;;;;;;;;;4982718;28;19921;-80
2023/07/30 15:16:57;;;;;;;;;;;;;;;;;;4967167;28;19926;-79
2023/07/30 15:19:46;;;;;;;;;;;;;;;;;;4981393;28;19926;-84
2023/07/30 15:22:33;;;;;;;;;;;;;;;;;;4969780;28;19934;-80
2023/07/30 15:25:19;;;;;;;;;;;;;;;;;;4967166;28;19918;-81
2023/07/30 15:28:06;;;;;;;;;;;;;;;;;;4976759;28;19918;-81
2023/07/30 15:30:52;;;;;;;;;;;;;;;;;;4970256;28;19934;-80
2023/07/30 15:33:39;;;;;;;;;;;;;;;;;;4982110;28;19922;-81
2023/07/30 15:36:25;;;;;;;;;;;;;;;;;;4976679;28;20449;-80
2023/07/30 15:39:12;;;;;;;;;;;;;;;;;;4980611;28;19915;-80
2023/07/30 15:41:58;;;;;;;;;;;;;;;;;;4980061;28;19922;-81
2023/07/30 15:44:45;;;;;;;;;;;;;;;;;;4984170;28;19932;-80
2023/07/30 15:47:31;;;;;;;;;;;;;;;;;;4978865;28;19922;-81
2023/07/30 15:50:18;;;;;;;;;;;;;;;;;;4972944;28;19919;-79
2023/07/30 15:53:04;;;;;;;;;;;;;;;;;;4952397;28;19926;-80
2023/07/30 15:55:51;;;;;;;;;;;;;;;;;;4950421;28;19929;-78
2023/07/30 15:58:38;;;;;;;;;;;;;;;;;;4944367;28;19935;-78
2023/07/30 16:01:25;;;;;;;;;;;;;;;;;;4927871;28;19923;-80
2023/07/30 16:04:12;;;;;;;;;;;;;;;;;;4946641;28;19929;-79
2023/07/30 16:07:00;;;;;;;;;;;;;;;;;;4944108;28;19919;-79
2023/07/30 16:09:46;;;;;;;;;;;;;;;;;;4947710;28;19961;-80
2023/07/30 16:12:33;;;;;;;;;;;;;;;;;;4936263;28;19963;-82
2023/07/30 16:15:19;;;;;;;;;;;;;;;;;;4942246;28;19922;-81
2023/07/30 16:18:06;;;;;;;;;;;;;;;;;;4935674;28;19934;-82
2023/07/30 16:20:52;;;;;;;;;;;;;;;;;;4922400;28;19923;-81
2023/07/30 16:23:38;;;;;;;;;;;;;;;;;;4929135;28;19933;-81
2023/07/30 16:26:25;;;;;;;;;;;;;;;;;;4932116;28;20673;-81
2023/07/30 16:29:11;;;;;;;;;;;;;;;;;;4926839;28;19919;-82
2023/07/30 16:31:58;;;;;;;;;;;;;;;;;;4926613;28;19942;-81
2023/07/30 16:34:44;;;;;;;;;;;;;;;;;;4926651;28;20280;-81
2023/07/30 16:37:31;;;;;;;;;;;;;;;;;;4923808;28;19919;-80
2023/07/30 16:40:17;;;;;;;;;;;;;;;;;;4922139;28;19926;-80
2023/07/30 16:43:04;;;;;;;;;;;;;;;;;;4935367;28;19931;-81
2023/07/30 16:45:50;;;;;;;;;;;;;;;;;;4944268;28;19919;-81
2023/07/30 16:48:37;;;;;;;;;;;;;;;;;;4943350;28;19939;-80
2023/07/30 16:51:23;;;;;;;;;;;;;;;;;;4921922;28;20553;-83
2023/07/30 16:54:11;;;;;;;;;;;;;;;;;;4938932;28;19919;-81
2023/07/30 16:56:57;;;;;;;;;;;;;;;;;;4950923;28;19923;-81
2023/07/30 16:59:44;;;;;;;;;;;;;;;;;;4949288;28;19958;-82
2023/07/30 17:02:30;;;;;;;;;;;;;;;;;;4947892;28;19957;-83
2023/07/30 17:05:17;;;;;;;;;;;;;;;;;;4947660;28;20315;-80
2023/07/30 17:08:03;;;;;;;;;;;;;;;;;;4956447;28;19926;-77
2023/07/30 17:10:50;;;;;;;;;;;;;;;;;;4929627;28;20395;-79
2023/07/30 17:13:38;;;;;;;;;;;;;;;;;;4926403;28;25713;-79
2023/07/30 17:16:25;;;;;;;;;;;;;;;;;;4934386;28;19922;-78
2023/07/30 17:19:12;;;;;;;;;;;;;;;;;;4914308;28;19927;-80
2023/07/30 17:21:58;;;;;;;;;;;;;;;;;;4936920;28;19927;-80
2023/07/30 17:24:45;;;;;;;;;;;;;;;;;;4924099;28;19964;-80
2023/07/30 17:27:31;;;;;;;;;;;;;;;;;;4934537;28;19923;-80
2023/07/30 17:30:18;;;;;;;;;;;;;;;;;;4927144;28;19929;-79
2023/07/30 17:33:04;;;;;;;;;;;;;;;;;;4941197;28;19926;-83
2023/07/30 17:35:51;;;;;;;;;;;;;;;;;;4925075;28;19929;-77
2023/07/30 17:38:37;;;;;;;;;;;;;;;;;;4923838;28;19941;-81
2023/07/30 17:41:24;;;;;;;;;;;;;;;;;;4926574;28;19946;-84
2023/07/30 17:44:10;;;;;;;;;;;;;;;;;;4934615;28;19965;-82
2023/07/30 17:46:57;;;;;;;;;;;;;;;;;;4942795;28;20264;-81
2023/07/30 17:49:43;;;;;;;;;;;;;;;;;;4943319;28;19918;-82
2023/07/30 17:52:30;;;;;;;;;;;;;;;;;;4931088;28;20382;-82
2023/07/30 17:55:16;;;;;;;;;;;;;;;;;;4935562;28;19933;-83
2023/07/30 17:58:03;;;;;;;;;;;;;;;;;;4936196;28;19941;-80
2023/07/30 18:00:49;;;;;;;;;;;;;;;;;;4962854;28;19924;-79
2023/07/30 18:03:36;;;;;;;;;;;;;;;;;;4947926;28;19937;-80
2023/07/30 18:06:22;;;;;;;;;;;;;;;;;;4951253;28;19919;-80
2023/07/30 18:09:08;;;;;;;;;;;;;;;;;;4943333;28;19929;-80
2023/07/30 18:11:56;;;;;;;;;;;;;;;;;;4950976;28;20573;-80
2023/07/30 18:14:42;;;;;;;;;;;;;;;;;;4960738;28;20679;-81
2023/07/30 18:17:29;;;;;;;;;;;;;;;;;;4962924;28;19918;-85
2023/07/30 18:20:16;;;;;;;;;;;;;;;;;;4942717;28;19929;-78
2023/07/30 18:23:02;;;;;;;;;;;;;;;;;;4956811;28;19952;-78
2023/07/30 18:25:48;;;;;;;;;;;;;;;;;;4964123;28;19922;-79
2023/07/30 18:28:35;;;;;;;;;;;;;;;;;;4959148;28;19926;-79
2023/07/30 18:31:21;;;;;;;;;;;;;;;;;;4964026;28;19922;-78
2023/07/30 18:34:08;;;;;;;;;;;;;;;;;;4961658;28;19922;-79
2023/07/30 18:36:54;;;;;;;;;;;;;;;;;;4963321;28;19930;-79
2023/07/30 18:39:41;;;;;;;;;;;;;;;;;;4944589;28;19954;-79
2023/07/30 18:42:28;;;;;;;;;;;;;;;;;;4942767;28;19933;-79
2023/07/30 18:45:14;;;;;;;;;;;;;;;;;;4936948;28;20403;-79
2023/07/30 18:48:00;;;;;;;;;;;;;;;;;;4960691;28;19914;-79
2023/07/30 18:50:47;;;;;;;;;;;;;;;;;;4961010;28;19929;-79
2023/07/30 18:53:35;;;;;;;;;;;;;;;;;;4960133;28;19925;-79
2023/07/30 18:56:21;;;;;;;;;;;;;;;;;;4961441;28;19922;-79